Time;durP1;ratioP1;P1;durP2;ratioP2;P2;SDS_P1;SDS_P2;PMS_P1;PMS_P2;Temp;Humidity;BMP_temperature;BMP_pressure;BME280_temperature;BME280_humidity;BME280_pressure;Samples;Min_cycle;Max_cycle;Signal;HPM_P1;HPM_P2
2023/11/01 00:01:30;;;;;;;27.83;13.80;;;9.10;99.90;;;8.70;100.00;99116.66;5039570;28;20037;-76
2023/11/01 00:03:56;;;;;;;29.40;14.13;;;9.00;99.90;;;8.71;100.00;99112.88;5023814;28;20052;-76
2023/11/01 00:06:22;;;;;;;29.25;14.38;;;9.00;99.90;;;8.69;100.00;99116.91;5020510;28;20050;-76
2023/11/01 00:08:47;;;;;;;34.08;13.77;;;9.00;99.90;;;8.66;100.00;99118.22;5023204;28;20139;-76
2023/11/01 00:11:13;;;;;;;29.40;13.70;;;8.90;99.90;;;8.62;100.00;99114.31;5022853;28;20075;-76
2023/11/01 00:13:39;;;;;;;25.83;13.77;;;8.90;99.90;;;8.61;100.00;99118.91;5025242;28;20505;-76
2023/11/01 00:16:05;;;;;;;24.73;13.68;;;8.90;99.90;;;8.60;100.00;99117.28;5025377;28;20041;-76
2023/11/01 00:18:31;;;;;;;29.15;13.82;;;8.90;99.90;;;8.60;100.00;99111.03;5017623;28;20037;-76
2023/11/01 00:20:56;;;;;;;26.20;14.00;;;8.90;99.90;;;8.58;100.00;99108.53;5019438;28;20099;-76
2023/11/01 00:23:22;;;;;;;29.27;13.75;;;8.90;99.90;;;8.58;100.00;99113.97;5011685;28;20088;-76
2023/11/01 00:25:48;;;;;;;28.45;14.10;;;8.90;99.90;;;8.58;100.00;99110.44;5022757;28;20449;-76
2023/11/01 00:28:13;;;;;;;30.45;14.32;;;8.80;99.90;;;8.58;100.00;99110.44;5015259;28;20030;-76
2023/11/01 00:30:39;;;;;;;30.80;14.82;;;8.80;99.90;;;8.59;100.00;99106.66;5009484;28;20045;-76
2023/11/01 00:33:05;;;;;;;31.45;15.40;;;8.90;99.90;;;8.59;100.00;99104.75;5015437;28;20103;-76
2023/11/01 00:35:31;;;;;;;30.15;13.75;;;8.90;99.90;;;8.61;100.00;99102.59;5024404;28;20061;-76
2023/11/01 00:37:59;;;;;;;26.67;13.73;;;8.90;99.90;;;8.62;100.00;99103.44;5017971;28;20042;-76
2023/11/01 00:40:25;;;;;;;33.58;14.07;;;8.90;99.90;;;8.64;100.00;99098.59;5027172;28;20100;-76
2023/11/01 00:42:51;;;;;;;29.50;13.30;;;8.90;99.90;;;8.66;100.00;99101.91;5025455;28;20034;-76
2023/11/01 00:45:19;;;;;;;29.42;13.65;;;8.90;99.90;;;8.69;100.00;99104.13;5025921;28;20504;-76
2023/11/01 00:47:45;;;;;;;27.77;13.63;;;9.00;99.90;;;8.74;100.00;99104.22;5030220;28;20516;-76
2023/11/01 00:50:10;;;;;;;28.45;13.35;;;9.00;99.90;;;8.75;100.00;99097.75;5013219;28;20038;-76
2023/11/01 00:52:37;;;;;;;30.80;14.00;;;9.00;99.90;;;8.77;100.00;99101.03;5024213;28;20041;-76
2023/11/01 00:55:04;;;;;;;29.05;13.93;;;9.10;99.90;;;8.81;100.00;99095.13;5023997;28;20500;-76
2023/11/01 00:57:32;;;;;;;30.20;13.83;;;9.10;99.90;;;8.85;100.00;99097.09;5027743;28;20030;-76
2023/11/01 00:59:58;;;;;;;26.52;13.02;;;9.20;99.90;;;8.87;100.00;99091.41;5036537;28;20046;-76
2023/11/01 01:02:24;;;;;;;25.67;13.48;;;9.20;99.90;;;8.89;100.00;99098.28;5022583;28;20034;-76
2023/11/01 01:04:50;;;;;;;27.35;13.27;;;9.20;99.90;;;8.84;100.00;99087.28;5018561;28;20053;-76
2023/11/01 01:07:15;;;;;;;26.65;12.15;;;9.20;99.90;;;8.87;100.00;99083.25;5025056;28;20069;-76
2023/11/01 01:09:41;;;;;;;25.95;13.18;;;9.20;99.90;;;8.89;100.00;99079.22;5033106;28;20087;-76
2023/11/01 01:12:10;;;;;;;24.52;12.48;;;9.20;99.90;;;8.96;100.00;99084.50;5026032;28;20044;-76
2023/11/01 01:14:36;;;;;;;30.48;13.68;;;9.20;99.90;;;8.95;100.00;99077.41;5013896;28;20474;-76
2023/11/01 01:17:02;;;;;;;32.50;13.27;;;9.30;99.90;;;8.95;100.00;99074.69;5012235;28;20045;-76
2023/11/01 01:19:28;;;;;;;22.70;12.05;;;9.30;99.90;;;8.95;100.00;99068.44;5024741;28;20041;-76
2023/11/01 01:21:54;;;;;;;24.88;12.10;;;9.30;99.90;;;8.95;100.00;99066.53;5030889;28;20052;-77
2023/11/01 01:24:20;;;;;;;22.92;13.27;;;9.30;99.90;;;8.93;100.00;99071.38;5025152;28;20500;-76
2023/11/01 01:26:46;;;;;;;25.45;14.25;;;9.20;99.90;;;8.96;100.00;99072.81;5016377;28;20041;-76
2023/11/01 01:29:12;;;;;;;27.83;14.27;;;9.20;99.90;;;9.01;100.00;99070.19;5010992;28;20449;-77
2023/11/01 01:31:38;;;;;;;30.65;14.52;;;9.40;99.90;;;9.01;100.00;99062.00;5017890;28;20038;-76
2023/11/01 01:34:04;;;;;;;30.95;16.10;;;9.40;99.90;;;9.10;100.00;99057.00;5029554;28;20026;-76
2023/11/01 01:36:29;;;;;;;32.22;15.45;;;9.40;99.90;;;9.15;100.00;99057.09;5035402;28;21009;-76
2023/11/01 01:38:55;;;;;;;29.42;15.80;;;9.50;99.90;;;9.19;100.00;99044.63;5019492;28;20033;-77
2023/11/01 01:41:21;;;;;;;29.10;15.63;;;9.50;99.90;;;9.20;100.00;99038.13;5024923;28;20446;-77
2023/11/01 01:43:47;;;;;;;28.10;15.32;;;9.60;99.90;;;9.25;100.00;99042.81;5013116;28;20104;-77
2023/11/01 01:46:15;;;;;;;29.13;16.55;;;9.60;99.90;;;9.21;100.00;99034.31;5031609;28;20591;-77
2023/11/01 01:48:44;;;;;;;27.80;15.55;;;9.60;99.90;;;9.19;100.00;99025.59;5032074;28;20065;-77
2023/11/01 01:51:12;;;;;;;30.88;16.88;;;9.60;99.90;;;9.27;100.00;99024.34;5037764;28;20115;-77
2023/11/01 01:53:44;;;;;;;;;;;9.60;99.90;;;9.27;100.00;99019.72;5017656;28;20045;-77
2023/11/01 01:56:12;;;;;;;28.52;16.15;;;9.70;99.90;;;9.26;100.00;99023.50;5021779;28;20284;-76
2023/11/01 01:58:41;;;;;;;;;;;9.70;99.90;;;9.17;100.00;99019.56;5035550;28;20054;-77
2023/11/01 02:01:08;;;;;;;27.92;14.95;;;9.60;99.90;;;9.14;100.00;99020.06;5024822;28;19940;-77
2023/11/01 02:03:36;;;;;;;27.23;14.82;;;9.60;99.90;;;9.11;100.00;99021.38;5012871;28;20042;-77
2023/11/01 02:06:02;;;;;;;27.55;15.32;;;9.50;99.90;;;9.05;100.00;99025.94;5017572;28;20045;-77
2023/11/01 02:08:32;;;;;;;26.45;15.15;;;9.50;99.90;;;9.08;100.00;99024.59;5011301;28;20477;-76
2023/11/01 02:11:02;;;;;;;25.60;15.05;;;9.50;99.90;;;9.10;100.00;99027.88;5011066;28;20057;-77
2023/11/01 02:13:31;;;;;;;24.85;14.85;;;9.50;99.90;;;9.14;100.00;99025.50;5027683;28;20052;-77
2023/11/01 02:15:57;;;;;;;25.33;14.10;;;9.50;99.90;;;9.09;100.00;99026.22;5028255;28;20403;-77
2023/11/01 02:18:23;;;;;;;25.02;15.23;;;9.50;99.90;;;8.97;100.00;99022.78;5013929;28;20045;-77
2023/11/01 02:20:51;;;;;;;26.05;13.50;;;9.40;99.90;;;8.91;100.00;99030.84;5030942;28;20037;-77
2023/11/01 02:23:17;;;;;;;24.58;14.13;;;9.40;99.90;;;8.90;100.00;99029.22;5036055;28;20188;-77
2023/11/01 02:25:44;;;;;;;25.85;13.75;;;9.40;99.90;;;8.92;100.00;99024.34;5014569;28;20557;-77
2023/11/01 02:28:12;;;;;;;23.73;13.20;;;9.40;99.90;;;8.90;100.00;99015.63;5038151;28;20124;-78
2023/11/01 02:30:42;;;;;;;23.65;13.02;;;9.40;99.90;;;8.86;100.00;99006.25;5027852;28;20727;-77
2023/11/01 02:33:08;;;;;;;19.90;11.32;;;9.40;99.90;;;8.90;100.00;99004.72;5026849;28;20076;-77
2023/11/01 02:35:34;;;;;;;21.70;12.10;;;9.40;99.90;;;8.89;100.00;99002.25;5014329;28;20505;-78
2023/11/01 02:38:00;;;;;;;18.50;11.30;;;9.40;99.90;;;8.89;100.00;98992.19;5030853;28;20031;-77
2023/11/01 02:40:29;;;;;;;19.67;11.15;;;9.40;99.90;;;8.85;100.00;98992.94;5045127;28;20033;-77
2023/11/01 02:42:55;;;;;;;15.80;10.35;;;9.40;99.90;;;8.89;100.00;98985.94;5024732;28;20565;-77
2023/11/01 02:45:22;;;;;;;16.05;9.82;;;9.40;99.90;;;8.90;100.00;98987.56;5030199;28;20029;-77
2023/11/01 02:47:51;;;;;;;16.02;9.00;;;9.40;99.90;;;8.90;100.00;98974.81;5028836;28;20437;-77
2023/11/01 02:50:20;;;;;;;15.30;8.93;;;9.40;99.90;;;8.86;100.00;98968.19;5025700;28;20091;-77
2023/11/01 02:52:48;;;;;;;14.63;8.23;;;9.40;99.90;;;8.88;100.00;98966.06;5019076;28;20041;-77
2023/11/01 02:55:16;;;;;;;16.10;8.55;;;9.40;99.90;;;8.87;100.00;98969.03;5018797;28;20096;-76
2023/11/01 02:57:42;;;;;;;18.27;8.67;;;9.30;99.90;;;8.85;100.00;98961.09;5023548;28;20072;-76
2023/11/01 03:00:18;;;;;;;15.70;8.90;;;9.30;99.90;;;8.87;100.00;98955.44;5028128;28;20050;-77
2023/11/01 03:02:53;;;;;;;15.90;8.68;;;9.40;99.90;;;8.89;100.00;98950.56;5012696;28;20044;-77
2023/11/01 03:05:25;;;;;;;16.90;9.07;;;9.40;99.90;;;8.88;100.00;98938.03;5028267;28;20045;-77
2023/11/01 03:07:54;;;;;;;15.25;9.43;;;9.40;99.90;;;8.89;100.00;98934.25;5012995;28;20083;-77
2023/11/01 03:10:20;;;;;;;15.57;9.13;;;9.40;99.90;;;8.87;100.00;98930.97;5029682;28;20436;-77
2023/11/01 03:12:47;;;;;;;14.60;8.65;;;9.40;99.90;;;8.98;100.00;98938.19;5039594;28;20048;-77
2023/11/01 03:15:13;;;;;;;13.50;8.45;;;9.40;99.90;;;8.99;100.00;98936.31;5022587;28;20029;-77
2023/11/01 03:17:39;;;;;;;14.30;8.50;;;9.40;99.90;;;9.01;100.00;98948.56;5018130;28;20033;-77
2023/11/01 03:20:07;;;;;;;17.00;9.27;;;9.40;99.90;;;9.04;100.00;98952.72;5029449;28;20025;-77
2023/11/01 03:22:34;;;;;;;14.10;8.68;;;9.40;99.90;;;9.03;100.00;98948.34;5032305;28;20044;-77
2023/11/01 03:25:01;;;;;;;11.68;8.18;;;9.40;99.90;;;9.05;100.00;98952.47;5025004;28;20374;-77
2023/11/01 03:27:27;;;;;;;13.77;7.77;;;9.40;99.90;;;9.06;100.00;98958.72;5018897;28;20037;-77
2023/11/01 03:29:54;;;;;;;11.70;7.05;;;9.40;99.90;;;9.10;100.00;98959.06;5023481;28;20033;-77
2023/11/01 03:32:22;;;;;;;10.50;7.00;;;9.50;99.90;;;9.05;100.00;98955.19;5009505;28;20030;-77
2023/11/01 03:34:48;;;;;;;15.23;7.30;;;9.50;99.90;;;9.16;100.00;98958.06;5015804;28;20079;-77
2023/11/01 03:37:13;;;;;;;13.10;6.60;;;9.50;99.90;;;9.14;100.00;98952.03;5027828;28;20061;-77
2023/11/01 03:39:39;;;;;;;12.23;6.30;;;9.50;99.90;;;9.13;100.00;98958.56;5029744;28;20913;-77
2023/11/01 03:42:05;;;;;;;8.75;5.60;;;9.50;99.90;;;9.23;100.00;98953.25;5025500;28;20037;-77
2023/11/01 03:44:32;;;;;;;10.55;6.68;;;9.50;99.90;;;9.24;100.00;98956.81;5022731;28;20414;-76
2023/11/01 03:46:59;;;;;;;10.82;6.03;;;9.60;99.90;;;9.21;100.00;98953.53;5029952;28;20029;-77
2023/11/01 03:49:29;;;;;;;11.73;6.23;;;9.60;99.90;;;9.23;100.00;98961.44;5025111;28;20026;-77
2023/11/01 03:52:01;;;;;;;12.13;6.10;;;9.60;99.90;;;9.24;100.00;98963.06;5010986;28;20381;-76
2023/11/01 03:54:27;;;;;;;11.98;6.47;;;9.50;99.90;;;9.25;100.00;98964.72;5012015;28;20192;-77
2023/11/01 03:56:53;;;;;;;10.13;5.93;;;9.60;99.90;;;9.20;100.00;98962.75;5028260;28;20048;-77
2023/11/01 03:59:19;;;;;;;10.82;6.55;;;9.50;99.90;;;9.24;100.00;98971.22;5013678;28;20030;-76
2023/11/01 04:01:45;;;;;;;10.93;5.63;;;9.50;99.90;;;9.24;100.00;98973.97;5025259;28;20030;-77
2023/11/01 04:04:11;;;;;;;10.77;5.50;;;9.50;99.90;;;9.18;100.00;98961.34;5025405;28;20482;-77
2023/11/01 04:06:39;;;;;;;9.35;5.70;;;9.50;99.90;;;9.23;100.00;98977.75;5028247;28;20037;-76
2023/11/01 04:09:06;;;;;;;9.63;5.75;;;9.60;99.90;;;9.22;100.00;98973.38;5027087;28;20035;-76
2023/11/01 04:11:33;;;;;;;10.55;6.03;;;9.60;99.90;;;9.22;100.00;98973.38;5022632;28;20052;-77
2023/11/01 04:13:59;;;;;;;11.57;6.47;;;9.60;99.90;;;9.27;100.00;98968.00;5028340;28;20484;-76
2023/11/01 04:16:24;;;;;;;10.48;6.20;;;9.60;99.90;;;9.30;100.00;98961.25;5023313;28;20087;-77
2023/11/01 04:18:50;;;;;;;11.45;6.22;;;9.60;99.90;;;9.30;100.00;98961.25;5027701;28;20060;-76
2023/11/01 04:21:16;;;;;;;8.50;5.28;;;9.60;99.90;;;9.30;100.00;98959.38;5022293;28;20037;-76
2023/11/01 04:23:42;;;;;;;10.40;5.90;;;9.60;99.90;;;9.31;100.00;98968.34;5033339;28;20047;-76
2023/11/01 04:26:08;;;;;;;10.05;5.72;;;9.70;99.90;;;9.31;100.00;98968.34;5033358;28;20045;-76
2023/11/01 04:28:35;;;;;;;10.52;6.15;;;9.60;99.90;;;9.26;100.00;98960.91;5023787;28;20026;-77
2023/11/01 04:31:01;;;;;;;11.68;6.13;;;9.60;99.90;;;9.27;100.00;98950.88;5027534;28;20041;-77
2023/11/01 04:33:27;;;;;;;12.43;6.18;;;9.60;99.90;;;9.25;100.00;98948.41;5025954;28;20111;-77
2023/11/01 04:35:53;;;;;;;12.63;6.10;;;9.60;99.90;;;9.24;100.00;98951.38;5019829;28;20105;-77
2023/11/01 04:38:20;;;;;;;10.35;6.25;;;9.60;99.90;;;9.29;100.00;98949.56;5022968;28;20044;-77
2023/11/01 04:40:47;;;;;;;12.00;6.57;;;9.60;99.90;;;9.24;100.00;98941.31;5023348;28;20485;-77
2023/11/01 04:43:17;;;;;;;10.38;5.93;;;9.70;99.90;;;9.25;100.00;98945.66;5034570;28;20061;-76
2023/11/01 04:45:44;;;;;;;11.93;6.53;;;9.70;99.90;;;9.34;100.00;98941.47;5029033;28;20064;-77
2023/11/01 04:48:10;;;;;;;10.52;6.25;;;9.60;99.90;;;9.31;100.00;98935.69;5021406;28;20034;-77
2023/11/01 04:50:36;;;;;;;12.00;6.07;;;9.70;99.90;;;9.36;100.00;98938.47;5023749;28;20038;-77
2023/11/01 04:53:02;;;;;;;11.32;6.57;;;9.70;99.90;;;9.41;100.00;98932.28;5027716;28;20038;-77
2023/11/01 04:55:27;;;;;;;11.98;6.40;;;9.70;99.90;;;9.44;100.00;98938.06;5026808;28;20045;-77
2023/11/01 04:57:53;;;;;;;10.20;5.50;;;9.70;99.90;;;9.45;100.00;98936.16;5023781;28;20484;-77
2023/11/01 05:00:19;;;;;;;11.80;6.13;;;9.80;99.90;;;9.50;100.00;98936.22;5018467;28;20156;-77
2023/11/01 05:02:48;;;;;;;9.60;5.78;;;9.80;99.90;;;9.54;100.00;98940.06;5032462;28;20084;-76
2023/11/01 05:05:14;;;;;;;9.13;5.32;;;9.80;99.90;;;9.55;100.00;98938.19;5018776;28;20525;-77
2023/11/01 05:07:41;;;;;;;8.73;4.93;;;9.80;99.90;;;9.55;100.00;98940.91;5022259;28;20510;-77
2023/11/01 05:10:08;;;;;;;7.72;5.15;;;9.80;99.90;;;9.60;100.00;98938.25;5025037;28;20461;-77
2023/11/01 05:12:34;;;;;;;8.52;5.10;;;9.80;99.90;;;9.63;100.00;98937.75;5030405;28;20045;-77
2023/11/01 05:15:00;;;;;;;14.52;5.30;;;9.90;99.90;;;9.62;100.00;98941.56;5023115;28;20429;-77
2023/11/01 05:17:26;;;;;;;13.35;5.25;;;9.90;99.90;;;9.68;100.00;98940.56;5026330;28;20048;-78
2023/11/01 05:19:52;;;;;;;10.20;4.63;;;9.90;99.90;;;9.67;100.00;98936.16;5024774;28;20034;-78
2023/11/01 05:22:18;;;;;;;9.77;5.22;;;9.90;99.90;;;9.60;100.00;98939.09;5026336;28;20180;-79
2023/11/01 05:24:47;;;;;;;8.18;4.90;;;9.80;99.90;;;9.60;100.00;98936.38;5020732;28;20037;-81
2023/11/01 05:27:14;;;;;;;10.68;5.18;;;9.80;99.90;;;9.59;100.00;98937.44;5030021;28;21054;-77
2023/11/01 05:29:40;;;;;;;7.68;4.68;;;9.90;99.90;;;9.59;100.00;98934.72;5022960;28;20488;-78
2023/11/01 05:32:07;;;;;;;8.93;5.00;;;9.90;99.90;;;9.60;100.00;98933.66;5026265;28;20034;-78
2023/11/01 05:34:32;;;;;;;12.10;5.43;;;9.90;99.90;;;9.63;100.00;98935.88;5025143;28;20041;-79
2023/11/01 05:36:58;;;;;;;12.57;5.57;;;9.90;99.90;;;9.60;100.00;98930.09;5026589;28;20037;-78
2023/11/01 05:39:24;;;;;;;10.32;5.25;;;9.90;99.90;;;9.66;100.00;98931.00;5023809;28;20481;-77
2023/11/01 05:41:52;;;;;;;10.75;5.38;;;9.90;99.90;;;9.71;100.00;98937.34;5018563;28;20068;-78
2023/11/01 05:44:21;;;;;;;10.80;5.85;;;9.90;99.90;;;9.69;100.00;98939.50;5023530;28;20034;-78
2023/11/01 05:46:51;;;;;;;8.23;5.30;;;9.90;99.90;;;9.69;100.00;98947.66;5026485;28;20149;-78
2023/11/01 05:49:17;;;;;;;10.65;5.80;;;9.90;99.90;;;9.72;100.00;98952.59;5021088;28;20049;-78
2023/11/01 05:51:43;;;;;;;9.65;6.05;;;10.00;99.90;;;9.72;100.00;98957.19;5021674;28;20042;-77
2023/11/01 05:54:09;;;;;;;11.05;6.10;;;10.00;99.90;;;9.70;100.00;98956.63;5023534;28;20042;-76
2023/11/01 05:56:35;;;;;;;11.40;6.40;;;9.90;99.90;;;9.73;100.00;98959.69;5024075;28;20460;-76
2023/11/01 05:59:00;;;;;;;10.20;5.70;;;9.90;99.90;;;9.74;100.00;98961.34;5044569;28;20042;-76
2023/11/01 06:01:26;;;;;;;13.65;5.93;;;10.00;99.90;;;9.71;100.00;98958.28;5028580;28;20492;-76
2023/11/01 06:03:56;;;;;;;10.73;5.68;;;9.90;99.90;;;9.74;100.00;98965.94;5023053;28;20072;-77
2023/11/01 06:06:26;;;;;;;12.13;6.10;;;9.90;99.90;;;9.69;100.00;98963.16;5023400;28;20044;-77
2023/11/01 06:08:52;;;;;;;11.15;6.00;;;9.90;99.90;;;9.64;100.00;98970.19;5031748;28;20041;-76
2023/11/01 06:11:18;;;;;;;12.60;5.75;;;9.90;99.90;;;9.69;100.00;98964.00;5028752;28;20471;-77
2023/11/01 06:13:44;;;;;;;11.60;6.00;;;9.90;99.90;;;9.63;100.00;98949.47;5024995;28;20045;-76
2023/11/01 06:16:10;;;;;;;11.52;5.57;;;9.90;99.90;;;9.69;100.00;98950.38;5025024;28;20048;-77
2023/11/01 06:18:37;;;;;;;10.18;5.85;;;10.00;99.90;;;9.75;100.00;98952.09;5019800;28;20034;-76
2023/11/01 06:21:04;;;;;;;12.95;5.63;;;10.00;99.90;;;9.75;100.00;98959.41;5009314;28;20452;-76
2023/11/01 06:23:30;;;;;;;11.43;6.10;;;10.00;99.90;;;9.76;100.00;98967.34;5022940;28;20057;-76
2023/11/01 06:25:56;;;;;;;16.75;5.75;;;10.00;99.90;;;9.72;100.00;98976.25;5024978;28;20305;-76
2023/11/01 06:28:21;;;;;;;10.77;5.85;;;10.00;99.90;;;9.77;100.00;98965.44;5028104;28;20033;-76
2023/11/01 06:30:49;;;;;;;12.38;6.47;;;10.00;99.90;;;9.71;100.00;98974.63;5030866;28;20050;-77
2023/11/01 06:33:14;;;;;;;11.45;6.10;;;10.00;99.90;;;9.77;100.00;98970.88;5022042;28;20412;-76
2023/11/01 06:35:40;;;;;;;13.63;6.53;;;10.00;99.90;;;9.78;100.00;98973.34;5018546;28;20042;-75
2023/11/01 06:38:06;;;;;;;13.18;6.53;;;10.00;99.90;;;9.80;100.00;98981.25;5020369;28;20113;-76
2023/11/01 06:40:32;;;;;;;17.92;6.40;;;10.00;99.90;;;9.82;100.00;98983.75;5021956;28;20749;-77
2023/11/01 06:42:58;;;;;;;15.15;7.22;;;10.00;99.90;;;9.80;100.00;98970.38;5020597;28;20037;-75
2023/11/01 06:45:23;;;;;;;11.77;6.85;;;10.00;99.90;;;9.76;100.00;98969.22;5019908;28;20082;-76
2023/11/01 06:47:49;;;;;;;10.75;6.68;;;10.00;99.90;;;9.76;100.00;98972.78;5029486;28;20485;-76
2023/11/01 06:50:15;;;;;;;12.15;6.65;;;10.00;99.90;;;9.80;100.00;98981.25;5018599;28;20044;-77
2023/11/01 06:52:44;;;;;;;12.10;7.00;;;10.00;99.90;;;9.79;100.00;98979.63;5019749;28;20045;-77
2023/11/01 06:55:15;;;;;;;14.15;7.10;;;10.00;99.90;;;9.78;100.00;98967.06;5031734;28;20045;-76
2023/11/01 06:57:41;;;;;;;15.85;7.07;;;10.00;99.90;;;9.77;100.00;98968.16;5026358;28;20041;-77
2023/11/01 07:00:11;;;;;;;12.35;6.90;;;10.00;99.90;;;9.83;100.00;98977.22;5028032;28;20095;-76
2023/11/01 07:02:36;;;;;;;11.30;7.20;;;10.10;99.90;;;9.85;100.00;98975.91;5026827;28;20087;-77
2023/11/01 07:05:06;;;;;;;15.93;7.25;;;10.10;99.90;;;9.86;100.00;98982.16;5028236;28;20045;-77
2023/11/01 07:07:32;;;;;;;15.38;7.60;;;10.10;99.90;;;9.89;100.00;98979.75;5017586;28;20084;-77
2023/11/01 07:10:00;;;;;;;13.90;6.80;;;10.10;99.90;;;9.97;100.00;98986.69;5028567;28;20457;-78
2023/11/01 07:12:25;;;;;;;12.93;7.13;;;10.20;99.90;;;9.99;100.00;98986.41;5025388;28;20087;-77
2023/11/01 07:14:51;;;;;;;13.63;7.30;;;10.20;99.90;;;9.99;100.00;98987.25;5028197;28;20094;-77
2023/11/01 07:17:17;;;;;;;10.52;6.93;;;10.20;99.90;;;9.99;100.00;98991.84;5028133;28;20041;-78
2023/11/01 07:19:42;;;;;;;13.70;7.43;;;10.30;99.90;;;9.99;100.00;98995.41;5028037;28;20446;-77
2023/11/01 07:22:08;;;;;;;15.90;7.07;;;10.30;99.90;;;10.01;100.00;99008.78;5030128;28;20041;-77
2023/11/01 07:24:34;;;;;;;19.35;6.88;;;10.30;99.90;;;10.02;100.00;99005.81;5027504;28;20479;-78
2023/11/01 07:27:00;;;;;;;16.30;6.57;;;10.30;99.90;;;10.08;100.00;99006.69;5029286;28;20038;-77
2023/11/01 07:29:25;;;;;;;11.27;6.30;;;10.40;99.90;;;10.05;100.00;99015.34;5028590;28;20034;-78
2023/11/01 07:31:52;;;;;;;13.75;6.50;;;10.40;99.90;;;10.07;100.00;99008.59;5027390;28;20040;-77
2023/11/01 07:34:18;;;;;;;13.23;6.40;;;10.40;99.90;;;10.06;100.00;99025.19;5027492;28;20042;-77
2023/11/01 07:36:44;;;;;;;16.58;8.55;;;10.40;99.90;;;10.08;100.00;99023.06;5026880;28;20060;-77
2023/11/01 07:39:09;;;;;;;10.75;6.60;;;10.40;99.90;;;10.07;100.00;99032.28;5025010;28;20029;-79
2023/11/01 07:41:36;;;;;;;12.50;7.30;;;10.40;99.90;;;10.06;100.00;99036.91;5029539;28;20045;-76
2023/11/01 07:44:03;;;;;;;12.75;6.88;;;10.40;99.90;;;10.14;100.00;99035.66;5023494;28;20918;-79
2023/11/01 07:46:29;;;;;;;16.95;6.55;;;10.40;99.90;;;10.06;100.00;99025.19;5023548;28;20045;-80
2023/11/01 07:48:54;;;;;;;11.50;5.97;;;10.40;99.90;;;10.03;100.00;99033.84;5023297;28;20040;-79
2023/11/01 07:51:21;;;;;;;15.05;6.65;;;10.40;99.90;;;10.06;100.00;99026.00;5040954;28;20669;-79
2023/11/01 07:53:46;;;;;;;12.60;5.85;;;10.50;99.90;;;10.18;100.00;99025.88;5023805;28;20049;-79
2023/11/01 07:56:12;;;;;;;11.93;5.85;;;10.50;99.90;;;10.19;100.00;99032.16;5026006;28;20071;-80
2023/11/01 07:58:38;;;;;;;7.78;5.13;;;10.60;99.90;;;10.20;100.00;99028.34;5025280;28;20041;-79
2023/11/01 08:01:04;;;;;;;10.75;5.78;;;10.60;99.90;;;10.21;100.00;99032.72;5021421;28;20117;-79
2023/11/01 08:03:31;;;;;;;9.57;4.95;;;10.60;99.90;;;10.24;100.00;99050.47;5027020;28;20168;-80
2023/11/01 08:05:57;;;;;;;10.32;4.88;;;10.60;99.90;;;10.28;100.00;99043.44;5025275;28;20136;-80
2023/11/01 08:08:22;;;;;;;9.18;4.63;;;10.70;99.90;;;10.23;100.00;99049.66;5016504;28;20117;-79
2023/11/01 08:10:48;;;;;;;9.50;5.00;;;10.70;99.90;;;10.22;100.00;99062.44;5028702;28;20052;-78
2023/11/01 08:13:15;;;;;;;11.10;5.32;;;10.60;99.90;;;10.25;100.00;99055.69;5028520;28;20041;-79
2023/11/01 08:15:41;;;;;;;9.98;5.15;;;10.70;99.90;;;10.28;100.00;99065.22;5029355;28;20078;-79
2023/11/01 08:18:09;;;;;;;8.57;4.60;;;10.70;99.90;;;10.29;100.00;99056.81;5030479;28;20038;-79
2023/11/01 08:20:38;;;;;;;12.20;5.40;;;10.70;99.90;;;10.32;100.00;99055.47;5023917;28;20118;-80
2023/11/01 08:23:03;;;;;;;11.27;4.80;;;10.80;99.90;;;10.36;100.00;99060.16;5019850;28;20030;-80
2023/11/01 08:25:29;;;;;;;9.27;4.55;;;10.70;99.90;;;10.36;100.00;99048.47;5010571;28;20100;-80
2023/11/01 08:27:55;;;;;;;9.95;5.00;;;10.70;99.90;;;10.35;100.00;99041.34;5019091;28;20042;-80
2023/11/01 08:30:21;;;;;;;10.45;5.15;;;10.80;99.90;;;10.38;100.00;99043.56;5022975;28;20041;-80
2023/11/01 08:32:46;;;;;;;10.05;4.47;;;10.80;99.90;;;10.46;100.00;99037.69;5020296;28;20042;-79
2023/11/01 08:35:12;;;;;;;11.00;5.28;;;10.80;99.90;;;10.39;100.00;99031.59;5028083;28;20107;-79
2023/11/01 08:37:38;;;;;;;11.10;4.40;;;10.80;99.90;;;10.39;100.00;99026.13;5010941;28;20081;-81
2023/11/01 08:40:05;;;;;;;9.35;4.28;;;10.80;99.90;;;10.36;100.00;99004.84;5010943;28;20033;-80
2023/11/01 08:42:30;;;;;;;10.90;4.55;;;10.80;99.90;;;10.56;100.00;98993.34;5027364;28;20128;-78
2023/11/01 08:44:57;;;;;;;9.93;4.10;;;10.90;99.90;;;10.65;100.00;98999.97;5010173;28;20493;-78
2023/11/01 08:47:42;;;;;;;7.43;3.90;;;10.90;99.90;;;10.69;100.00;98997.56;5027281;28;20042;-79
2023/11/01 08:50:12;;;;;;;6.15;3.75;;;11.10;99.90;;;10.81;100.00;99004.75;5020446;28;20045;-79
2023/11/01 08:52:40;;;;;;;6.32;3.40;;;11.10;99.90;;;10.84;100.00;98999.63;5015221;28;20056;-79
2023/11/01 08:55:12;;;;;;;5.85;3.67;;;11.10;99.90;;;10.83;100.00;99010.78;5013333;28;20397;-78
2023/11/01 08:57:39;;;;;;;6.65;3.10;;;11.20;99.90;;;10.78;100.00;99017.84;5019502;28;20041;-79
2023/11/01 09:00:06;;;;;;;11.82;3.03;;;11.10;99.90;;;10.73;100.00;99019.69;5040489;28;20125;-78
2023/11/01 09:02:32;;;;;;;7.35;3.38;;;11.10;99.90;;;10.64;100.00;99020.16;5023492;28;20536;-77
2023/11/01 09:04:58;;;;;;;5.82;2.90;;;11.10;99.90;;;10.71;100.00;99036.31;5021192;28;20084;-78
2023/11/01 09:07:24;;;;;;;6.85;2.97;;;11.10;99.90;;;10.75;100.00;99025.72;5032902;28;20057;-79
2023/11/01 09:09:52;;;;;;;6.25;3.10;;;11.10;99.90;;;10.72;100.00;99031.66;5019830;28;20056;-79
2023/11/01 09:12:19;;;;;;;6.40;3.25;;;11.10;99.90;;;10.71;100.00;99028.13;5024535;28;20030;-79
2023/11/01 09:14:48;;;;;;;6.90;3.30;;;11.10;99.90;;;10.75;100.00;99018.34;5016323;28;20033;-80
2023/11/01 09:17:14;;;;;;;10.00;3.50;;;11.10;99.90;;;10.79;100.00;99013.22;5038181;28;20048;-79
2023/11/01 09:19:41;;;;;;;6.85;3.47;;;11.20;99.90;;;10.83;100.00;99010.78;5016480;28;20038;-76
2023/11/01 09:22:08;;;;;;;9.68;4.22;;;11.20;99.90;;;10.86;100.00;99007.53;5032340;28;20060;-79
2023/11/01 09:24:34;;;;;;;7.93;3.43;;;11.20;99.90;;;10.87;100.00;99007.28;5027063;28;20128;-79
2023/11/01 09:27:01;;;;;;;7.03;3.65;;;11.30;99.90;;;10.86;100.00;99007.53;5024710;28;20041;-80
2023/11/01 09:29:27;;;;;;;7.22;3.45;;;11.30;99.90;;;10.93;100.00;99005.44;5021670;28;20037;-80
2023/11/01 09:31:53;;;;;;;5.45;3.50;;;11.30;99.90;;;10.98;100.00;99007.34;5024157;28;20034;-79
2023/11/01 09:34:19;;;;;;;5.75;3.30;;;11.30;99.90;;;11.05;100.00;99008.00;5026365;28;20489;-80
2023/11/01 09:36:45;;;;;;;6.28;3.35;;;11.30;99.90;;;10.98;100.00;99007.34;5029755;28;20674;-79
2023/11/01 09:39:11;;;;;;;7.63;3.45;;;11.30;99.90;;;11.09;100.00;99022.75;5030613;28;20039;-79
2023/11/01 09:41:50;;;;;;;7.85;3.10;;;11.40;99.90;;;11.07;100.00;99022.19;5026979;28;20037;-79
2023/11/01 09:44:17;;;;;;;;;;;11.40;99.90;;;11.20;100.00;99012.75;5022297;28;20085;-80
2023/11/01 09:46:45;;;;;;;4.82;2.63;;;11.50;99.90;;;11.36;100.00;99011.75;5016673;28;20004;-80
2023/11/01 09:49:11;;;;;;;6.45;3.00;;;11.60;99.90;;;11.45;100.00;99008.56;5031139;28;20127;-79
2023/11/01 09:51:38;;;;;;;5.13;2.97;;;11.70;99.90;;;11.64;100.00;99026.13;5030549;28;20033;-78
2023/11/01 09:54:05;;;;;;;5.05;2.30;;;11.80;99.90;;;11.67;100.00;99027.53;5032881;28;20052;-79
2023/11/01 09:56:33;;;;;;;4.28;2.22;;;11.90;99.90;;;11.79;100.00;99060.94;5017111;28;20058;-79
2023/11/01 09:59:03;;;;;;;3.58;1.80;;;12.00;99.90;;;11.73;100.00;99083.03;5031778;28;20038;-79
2023/11/01 10:01:30;;;;;;;4.78;1.85;;;12.00;99.90;;;11.86;100.00;99106.34;5021102;28;20092;-80
2023/11/01 10:03:56;;;;;;;5.37;1.57;;;12.10;99.90;;;11.80;100.00;99138.25;5033431;28;20057;-79
2023/11/01 10:06:26;;;;;;;3.92;1.45;;;12.10;99.90;;;11.85;100.00;99160.16;5033797;28;20033;-79
2023/11/01 10:08:52;;;;;;;2.72;1.42;;;12.10;99.90;;;11.81;100.00;99169.97;5033215;28;20034;-79
2023/11/01 10:11:19;;;;;;;3.30;1.40;;;12.10;99.90;;;11.86;100.00;99193.78;5026504;28;20095;-80
2023/11/01 10:13:44;;;;;;;3.10;1.40;;;12.20;99.90;;;11.86;100.00;99189.13;5026614;28;20477;-78